Time;durP1;ratioP1;P1;durP2;ratioP2;P2;SDS_P1;SDS_P2;PMS_P1;PMS_P2;Temp;Humidity;BMP_temperature;BMP_pressure;BME280_temperature;BME280_humidity;BME280_pressure;Samples;Min_cycle;Max_cycle;Signal;HPM_P1;HPM_P2
2022/07/18 00:00:51;;;;;;;3.03;1.47;;;18.70;99.90;;;;;;5056580;28;20548;-79
2022/07/18 00:03:19;;;;;;;5.17;1.97;;;18.60;99.90;;;;;;5055718;28;20509;-81
2022/07/18 00:05:46;;;;;;;2.97;1.40;;;18.60;99.90;;;;;;5056683;28;20541;-81
2022/07/18 00:08:13;;;;;;;4.27;1.20;;;18.60;99.90;;;;;;5056407;28;20508;-79
2022/07/18 00:10:40;;;;;;;4.70;1.57;;;18.60;99.90;;;;;;5056969;28;20481;-79
2022/07/18 00:13:06;;;;;;;6.13;1.50;;;18.50;99.90;;;;;;5054677;28;20479;-79
2022/07/18 00:15:33;;;;;;;4.00;1.63;;;18.50;99.90;;;;;;5056684;28;20537;-80
2022/07/18 00:18:00;;;;;;;3.40;1.73;;;18.50;99.90;;;;;;5056069;28;20573;-80
2022/07/18 00:20:29;;;;;;;3.30;1.60;;;18.50;99.90;;;;;;5056846;28;20568;-78
2022/07/18 00:22:56;;;;;;;4.80;1.60;;;18.40;99.90;;;;;;5055461;28;20465;-78
2022/07/18 00:25:23;;;;;;;3.10;1.30;;;18.40;99.90;;;;;;5056461;28;20489;-79
2022/07/18 00:27:49;;;;;;;5.33;2.10;;;18.40;99.90;;;;;;5057097;28;20555;-80
2022/07/18 00:30:16;;;;;;;3.20;1.80;;;18.30;99.90;;;;;;5056615;28;20533;-79
2022/07/18 00:32:43;;;;;;;2.83;1.40;;;18.30;99.90;;;;;;5055944;28;20460;-78
2022/07/18 00:35:10;;;;;;;4.93;2.13;;;18.30;99.90;;;;;;5056625;28;20515;-78
2022/07/18 00:37:39;;;;;;;5.03;1.90;;;18.30;99.90;;;;;;5057423;28;20470;-80
2022/07/18 00:40:07;;;;;;;3.07;1.63;;;18.30;99.90;;;;;;5056716;28;20580;-80
2022/07/18 00:42:34;;;;;;;4.17;1.97;;;18.20;99.90;;;;;;5056388;28;20483;-79
2022/07/18 00:45:01;;;;;;;7.23;1.83;;;18.20;99.90;;;;;;5056355;28;21010;-79
2022/07/18 00:47:27;;;;;;;3.70;1.73;;;18.20;99.90;;;;;;5056848;28;20892;-79
2022/07/18 00:49:54;;;;;;;2.90;1.33;;;18.10;99.90;;;;;;5056711;28;20503;-80
2022/07/18 00:52:21;;;;;;;5.07;1.90;;;18.10;99.90;;;;;;5049810;28;20854;-82
2022/07/18 00:54:50;;;;;;;3.50;1.40;;;18.10;99.90;;;;;;5055543;28;20522;-79
2022/07/18 00:57:18;;;;;;;4.33;2.00;;;18.00;99.90;;;;;;5055925;28;20541;-79
2022/07/18 01:02:29;;;;;;;5.00;1.37;;;18.00;99.90;;;;;;5059346;28;20509;-78
2022/07/18 01:04:56;;;;;;;3.77;1.90;;;18.00;99.90;;;;;;5058281;28;20533;-79
2022/07/18 01:07:23;;;;;;;4.73;1.80;;;17.90;99.90;;;;;;5055741;28;20465;-79
2022/07/18 01:09:51;;;;;;;4.30;1.50;;;17.90;99.90;;;;;;5055528;28;20454;-79
2022/07/18 01:12:18;;;;;;;4.83;1.50;;;17.90;99.90;;;;;;5055106;28;20461;-79
2022/07/18 01:14:46;;;;;;;5.43;1.53;;;17.80;99.90;;;;;;5055115;28;20486;-80
2022/07/18 01:17:15;;;;;;;3.40;1.70;;;17.80;99.90;;;;;;5055696;28;20543;-79
2022/07/18 01:19:42;;;;;;;4.47;1.90;;;17.80;99.90;;;;;;5055244;28;20463;-79
2022/07/18 01:22:10;;;;;;;3.80;1.63;;;17.80;99.90;;;;;;5055399;28;20568;-79
2022/07/18 01:24:38;;;;;;;4.40;2.03;;;17.70;99.90;;;;;;5055062;28;20455;-79
2022/07/18 01:27:05;;;;;;;7.03;1.60;;;17.70;99.90;;;;;;5079060;22;20502;-81
2022/07/18 01:29:31;;;;;;;4.83;2.13;;;17.70;99.90;;;;;;5042557;28;21017;-80
2022/07/18 01:32:05;;;;;;;4.00;1.47;;;17.60;99.90;;;;;;5048168;28;20451;-80
2022/07/18 01:34:32;;;;;;;3.67;1.77;;;17.60;99.90;;;;;;5045483;28;20472;-80
2022/07/18 01:36:59;;;;;;;3.20;1.43;;;17.60;99.90;;;;;;5044579;28;20474;-80
2022/07/18 01:39:27;;;;;;;9.53;2.20;;;17.50;99.90;;;;;;5044615;28;20457;-80
2022/07/18 01:41:58;;;;;;;3.03;1.63;;;17.50;99.90;;;;;;5044822;28;20515;-80
2022/07/18 01:44:26;;;;;;;3.17;1.60;;;17.50;99.90;;;;;;5044886;28;20649;-80
2022/07/18 01:46:53;;;;;;;4.47;2.13;;;17.50;99.90;;;;;;5046224;28;20498;-80
2022/07/18 01:49:20;;;;;;;3.77;1.90;;;17.40;99.90;;;;;;5046430;28;20462;-80
2022/07/18 01:51:48;;;;;;;3.10;1.50;;;17.40;99.90;;;;;;5045931;28;20458;-80
2022/07/18 01:54:16;;;;;;;4.10;1.60;;;17.40;99.90;;;;;;5045986;28;20453;-80
2022/07/18 01:56:44;;;;;;;3.80;1.93;;;17.40;99.90;;;;;;5046379;28;20482;-80
2022/07/18 01:59:11;;;;;;;3.20;1.13;;;17.30;99.90;;;;;;5046049;28;20477;-79
2022/07/18 02:01:38;;;;;;;5.20;1.80;;;17.30;99.90;;;;;;5046288;28;20488;-80
2022/07/18 02:04:05;;;;;;;4.33;1.67;;;17.30;99.90;;;;;;5025360;28;20482;-80
2022/07/18 02:06:32;;;;;;;3.70;1.53;;;17.30;99.90;;;;;;5025388;28;20494;-80
2022/07/18 02:08:59;;;;;;;4.47;1.80;;;17.30;99.90;;;;;;5038213;28;20483;-80
2022/07/18 02:11:26;;;;;;;3.43;1.70;;;17.30;99.90;;;;;;5043838;28;20475;-79
2022/07/18 02:13:54;;;;;;;3.40;1.87;;;17.20;99.90;;;;;;5044478;28;20463;-81
2022/07/18 02:16:21;;;;;;;3.83;1.47;;;17.20;99.90;;;;;;5046018;28;20449;-80
2022/07/18 02:18:48;;;;;;;4.00;1.73;;;17.10;99.90;;;;;;5045845;28;20517;-80
2022/07/18 02:21:15;;;;;;;5.50;1.70;;;17.10;99.90;;;;;;5046534;28;20513;-81
2022/07/18 02:23:43;;;;;;;4.17;1.87;;;17.10;99.90;;;;;;5045203;28;20536;-81
2022/07/18 02:26:10;;;;;;;3.73;1.67;;;17.10;99.90;;;;;;5047145;28;20482;-80
2022/07/18 02:28:37;;;;;;;6.73;1.97;;;17.10;99.90;;;;;;5047018;28;20456;-81
2022/07/18 02:31:06;;;;;;;3.93;1.60;;;17.10;99.90;;;;;;5047063;28;20441;-80
2022/07/18 02:33:33;;;;;;;3.87;1.70;;;17.00;99.90;;;;;;5043667;28;20477;-80
2022/07/18 02:36:00;;;;;;;6.17;1.83;;;17.00;99.90;;;;;;5041977;28;20509;-80
2022/07/18 02:38:27;;;;;;;5.27;1.67;;;17.00;99.90;;;;;;5042223;28;20491;-81
2022/07/18 02:40:54;;;;;;;3.47;1.60;;;16.90;99.90;;;;;;5045562;28;20877;-79
2022/07/18 02:43:21;;;;;;;4.47;2.03;;;16.90;99.90;;;;;;5044751;28;20459;-80
2022/07/18 02:45:48;;;;;;;4.57;1.73;;;16.90;99.90;;;;;;5044928;28;20460;-81
2022/07/18 02:48:16;;;;;;;3.47;1.60;;;16.80;99.90;;;;;;5041707;28;20496;-80
2022/07/18 02:50:43;;;;;;;4.47;1.70;;;16.80;99.90;;;;;;5041093;28;20445;-80
2022/07/18 02:53:10;;;;;;;3.50;1.77;;;16.80;99.90;;;;;;5039205;28;20456;-80
2022/07/18 02:55:36;;;;;;;3.93;2.00;;;16.80;99.90;;;;;;5041386;28;20547;-81
2022/07/18 02:58:03;;;;;;;3.40;1.73;;;16.80;99.90;;;;;;5041447;28;20918;-81
2022/07/18 03:00:30;;;;;;;3.10;1.60;;;16.80;99.90;;;;;;5041081;28;20459;-79
2022/07/18 03:02:57;;;;;;;5.17;1.60;;;16.80;99.90;;;;;;5040438;28;21196;-79
2022/07/18 03:05:25;;;;;;;3.77;1.70;;;16.70;99.90;;;;;;5042385;28;20912;-81
2022/07/18 03:07:52;;;;;;;5.23;1.80;;;16.70;99.90;;;;;;5046861;28;20480;-80
2022/07/18 03:10:19;;;;;;;3.37;1.60;;;16.70;99.90;;;;;;5047431;28;20477;-80
2022/07/18 03:12:46;;;;;;;2.97;1.30;;;16.70;99.90;;;;;;5046412;28;20461;-80
2022/07/18 03:15:13;;;;;;;3.87;1.77;;;16.70;99.90;;;;;;5042925;28;20472;-81
2022/07/18 03:17:39;;;;;;;3.17;1.50;;;16.70;99.90;;;;;;5041230;28;20504;-80
2022/07/18 03:20:07;;;;;;;4.37;1.80;;;16.70;99.90;;;;;;5042628;28;20468;-80
2022/07/18 03:22:36;;;;;;;13.17;2.03;;;16.70;99.90;;;;;;5045126;28;20568;-81
2022/07/18 03:25:03;;;;;;;3.50;1.70;;;16.60;99.90;;;;;;5044520;28;20536;-80
2022/07/18 03:27:29;;;;;;;3.60;1.80;;;16.60;99.90;;;;;;5044799;28;20477;-80
2022/07/18 03:29:56;;;;;;;4.07;1.87;;;16.60;99.90;;;;;;5045598;28;20476;-80
2022/07/18 03:32:23;;;;;;;3.73;1.67;;;16.60;99.90;;;;;;5045513;28;20464;-80
2022/07/18 03:34:50;;;;;;;4.20;1.87;;;16.60;99.90;;;;;;5043217;28;20465;-78
2022/07/18 03:37:17;;;;;;;3.70;1.60;;;16.60;99.90;;;;;;5039520;28;20512;-79
2022/07/18 03:39:45;;;;;;;4.60;1.73;;;16.60;99.90;;;;;;5047912;28;20458;-80
2022/07/18 03:42:12;;;;;;;3.23;1.90;;;16.60;99.90;;;;;;5047597;28;20511;-80
2022/07/18 03:44:39;;;;;;;4.57;1.77;;;16.50;99.90;;;;;;5047031;28;20448;-81
2022/07/18 03:47:06;;;;;;;3.77;1.80;;;16.50;99.90;;;;;;5047454;28;20476;-80
2022/07/18 03:49:33;;;;;;;7.77;2.03;;;16.50;99.90;;;;;;5043582;28;20483;-80
2022/07/18 03:51:59;;;;;;;3.90;1.63;;;16.50;99.90;;;;;;5046681;28;20542;-80
2022/07/18 03:54:26;;;;;;;3.17;1.50;;;16.60;99.90;;;;;;5045388;28;20524;-80
2022/07/18 03:56:54;;;;;;;3.40;1.47;;;16.60;99.90;;;;;;5045827;28;20504;-80
2022/07/18 03:59:21;;;;;;;3.63;1.77;;;16.50;99.90;;;;;;5045392;28;20516;-80
2022/07/18 04:01:48;;;;;;;4.23;1.87;;;16.50;99.90;;;;;;5044391;28;20476;-80
2022/07/18 04:04:15;;;;;;;4.47;1.90;;;16.60;99.90;;;;;;5045045;28;20476;-80
2022/07/18 04:06:42;;;;;;;4.60;2.17;;;16.60;99.90;;;;;;5045736;28;21000;-80
2022/07/18 04:09:09;;;;;;;4.93;1.77;;;16.60;99.90;;;;;;5045292;28;20816;-81
2022/07/18 04:11:36;;;;;;;3.83;1.83;;;16.60;99.90;;;;;;5044314;28;20472;-80
2022/07/18 04:14:04;;;;;;;4.30;2.03;;;16.60;99.90;;;;;;5038463;28;20487;-80
2022/07/18 04:16:31;;;;;;;4.23;1.60;;;16.60;99.90;;;;;;5041393;28;20487;-81
2022/07/18 04:18:58;;;;;;;4.10;1.90;;;16.60;99.90;;;;;;5043815;28;20492;-81
2022/07/18 04:21:24;;;;;;;4.03;1.63;;;16.60;99.90;;;;;;5042538;28;20458;-80
2022/07/18 04:23:52;;;;;;;3.93;2.17;;;16.60;99.90;;;;;;5042517;28;20456;-80
2022/07/18 04:26:19;;;;;;;3.30;1.60;;;16.70;99.90;;;;;;5043135;28;20833;-81
2022/07/18 04:28:46;;;;;;;4.90;2.00;;;16.70;99.90;;;;;;5044034;28;20456;-80
2022/07/18 04:31:14;;;;;;;5.37;1.83;;;16.80;99.90;;;;;;5046168;28;20453;-81
2022/07/18 04:33:41;;;;;;;4.57;1.70;;;16.80;99.90;;;;;;5046199;28;20526;-81
2022/07/18 04:36:08;;;;;;;5.00;2.47;;;16.80;99.90;;;;;;5044665;28;20703;-80
2022/07/18 04:38:37;;;;;;;4.80;1.98;;;16.80;99.90;;;;;;5045568;28;20833;-78
2022/07/18 04:41:04;;;;;;;5.30;2.40;;;16.90;99.90;;;;;;5048781;28;20194;-79
2022/07/18 04:43:31;;;;;;;6.20;2.13;;;16.90;99.90;;;;;;5047761;28;20537;-79
2022/07/18 04:45:58;;;;;;;5.83;2.20;;;17.10;99.90;;;;;;5048821;28;20456;-80
2022/07/18 04:48:26;;;;;;;4.73;2.93;;;17.10;99.90;;;;;;5049191;28;20584;-79
2022/07/18 04:50:53;;;;;;;4.30;1.70;;;17.10;99.90;;;;;;5043336;28;20902;-80
2022/07/18 04:53:20;;;;;;;6.63;2.20;;;17.10;99.90;;;;;;5044561;28;20476;-80
2022/07/18 04:55:47;;;;;;;4.23;2.67;;;17.10;99.90;;;;;;5046451;28;20487;-79
2022/07/18 04:58:14;;;;;;;4.40;1.90;;;17.20;99.90;;;;;;5046390;28;20481;-80
2022/07/18 05:00:41;;;;;;;4.57;1.90;;;17.20;99.90;;;;;;5045746;28;20460;-79
2022/07/18 05:03:08;;;;;;;4.47;1.90;;;17.20;99.90;;;;;;5046551;28;20534;-79
2022/07/18 05:05:36;;;;;;;4.37;2.03;;;17.30;99.90;;;;;;5046728;28;20462;-78
2022/07/18 05:08:03;;;;;;;6.00;2.10;;;17.30;99.90;;;;;;5044606;28;20487;-82
2022/07/18 05:10:30;;;;;;;4.73;2.60;;;17.40;99.90;;;;;;5045830;28;20471;-82
2022/07/18 05:12:57;;;;;;;5.47;2.10;;;17.40;99.90;;;;;;5046709;28;20465;-80
2022/07/18 05:15:25;;;;;;;6.07;2.40;;;17.50;99.90;;;;;;5045367;28;20835;-80
2022/07/18 05:17:53;;;;;;;4.30;2.13;;;17.60;99.90;;;;;;5044951;28;20497;-81
2022/07/18 05:20:21;;;;;;;7.33;2.70;;;17.60;99.90;;;;;;5041953;28;20729;-82
2022/07/18 05:22:51;;;;;;;3.40;1.60;;;17.70;99.90;;;;;;5042806;28;20523;-79
2022/07/18 05:25:19;;;;;;;3.50;1.50;;;17.70;99.90;;;;;;5044105;28;20550;-80
2022/07/18 05:27:46;;;;;;;5.43;1.87;;;17.80;99.90;;;;;;5041180;28;21049;-80
2022/07/18 05:30:14;;;;;;;8.60;2.20;;;17.80;99.90;;;;;;5043345;28;20502;-80
2022/07/18 05:32:42;;;;;;;6.30;2.00;;;17.90;99.90;;;;;;5043387;28;20512;-81
2022/07/18 05:35:11;;;;;;;3.97;2.30;;;17.90;99.90;;;;;;5042148;28;20537;-80
2022/07/18 05:37:38;;;;;;;3.87;1.57;;;18.00;99.90;;;;;;5042966;28;20566;-81
2022/07/18 05:40:09;;;;;;;7.53;3.13;;;18.10;99.90;;;;;;5042580;28;20949;-81
2022/07/18 05:42:36;;;;;;;3.03;1.67;;;18.20;99.90;;;;;;5042492;28;20550;-81
2022/07/18 05:45:03;;;;;;;6.90;1.83;;;18.20;99.90;;;;;;5041840;28;21055;-81
2022/07/18 05:47:31;;;;;;;5.10;2.10;;;18.30;99.90;;;;;;5043484;28;20499;-82
2022/07/18 05:49:57;;;;;;;4.80;1.80;;;18.30;99.90;;;;;;5044481;28;20492;-79
2022/07/18 05:52:24;;;;;;;5.03;1.87;;;18.40;99.90;;;;;;5041356;28;20446;-80
2022/07/18 05:54:51;;;;;;;5.67;1.87;;;18.40;99.90;;;;;;5042236;28;20475;-79
2022/07/18 05:57:20;;;;;;;5.33;1.87;;;18.50;99.90;;;;;;5043364;28;20478;-80
2022/07/18 05:59:47;;;;;;;7.40;2.23;;;18.60;99.90;;;;;;5044459;28;20498;-80
2022/07/18 06:02:14;;;;;;;5.50;1.53;;;18.70;99.90;;;;;;5045129;28;20520;-82
2022/07/18 06:04:41;;;;;;;3.73;1.47;;;18.80;99.90;;;;;;5045657;28;20451;-81
2022/07/18 06:07:08;;;;;;;3.80;1.50;;;18.80;99.90;;;;;;5053051;28;20467;-81
2022/07/18 06:09:37;;;;;;;4.17;1.50;;;19.00;99.90;;;;;;5055598;28;20438;-81
2022/07/18 06:12:04;;;;;;;3.43;1.70;;;19.00;99.90;;;;;;5053262;28;20567;-79
2022/07/18 06:14:33;;;;;;;8.00;1.97;;;19.10;99.90;;;;;;5044660;28;20484;-79
2022/07/18 06:17:00;;;;;;;4.63;1.83;;;19.20;99.90;;;;;;5029516;28;20476;-80
2022/07/18 06:19:27;;;;;;;8.40;2.20;;;19.30;99.90;;;;;;5034665;28;20499;-80
2022/07/18 06:21:53;;;;;;;10.33;2.00;;;19.40;99.90;;;;;;5041055;28;20488;-78
2022/07/18 06:24:20;;;;;;;3.43;1.53;;;19.40;99.90;;;;;;5040582;28;20537;-79
2022/07/18 06:26:49;;;;;;;6.63;2.20;;;19.60;99.90;;;;;;5042495;28;20553;-80
2022/07/18 06:29:16;;;;;;;8.33;1.63;;;19.60;99.90;;;;;;5044427;28;20506;-80
2022/07/18 06:31:44;;;;;;;7.77;2.37;;;19.70;99.90;;;;;;5042247;28;20481;-79
2022/07/18 06:34:11;;;;;;;8.00;2.30;;;19.80;99.90;;;;;;5042850;28;20541;-80
2022/07/18 06:36:38;;;;;;;6.10;2.13;;;19.90;99.90;;;;;;5042652;28;20481;-79
2022/07/18 06:39:10;;;;;;;7.60;1.60;;;20.00;99.90;;;;;;5041394;28;20516;-79
2022/07/18 06:41:37;;;;;;;6.33;1.80;;;20.10;99.90;;;;;;5043337;28;20455;-79
2022/07/18 06:44:05;;;;;;;6.63;2.17;;;20.20;99.90;;;;;;5030662;28;20499;-78
2022/07/18 06:46:31;;;;;;;4.13;1.60;;;20.20;99.90;;;;;;5026774;28;21073;-78
2022/07/18 06:49:00;;;;;;;5.47;1.90;;;20.30;99.90;;;;;;5031948;28;20643;-78
2022/07/18 06:51:27;;;;;;;8.47;2.60;;;20.50;99.90;;;;;;5032596;28;20807;-79
2022/07/18 06:53:54;;;;;;;6.97;2.20;;;20.50;99.90;;;;;;5040734;28;20445;-81
2022/07/18 06:56:21;;;;;;;5.97;2.00;;;20.70;99.90;;;;;;5044629;28;21030;-79
2022/07/18 06:58:50;;;;;;;13.03;2.83;;;20.80;99.90;;;;;;5043920;28;20441;-80
2022/07/18 07:01:17;;;;;;;7.57;1.73;;;21.00;99.90;;;;;;5044179;28;20517;-81
2022/07/18 07:03:44;;;;;;;4.60;1.90;;;21.10;99.90;;;;;;5042731;28;20511;-80
2022/07/18 07:06:13;;;;;;;2.87;1.50;;;21.20;99.90;;;;;;5043364;28;20492;-80
2022/07/18 07:08:40;;;;;;;6.67;1.70;;;21.40;99.90;;;;;;5045665;28;20449;-80
2022/07/18 07:11:07;;;;;;;6.17;1.70;;;21.40;99.90;;;;;;5046767;28;20449;-81
2022/07/18 07:13:34;;;;;;;7.70;2.00;;;21.50;99.90;;;;;;5046760;28;20429;-78
2022/07/18 07:16:01;;;;;;;6.63;2.17;;;21.50;99.90;;;;;;5047236;28;20477;-80
2022/07/18 07:18:27;;;;;;;4.87;1.70;;;21.60;99.90;;;;;;5039222;28;20472;-80
2022/07/18 07:20:54;;;;;;;11.10;2.00;;;21.70;99.90;;;;;;5040174;28;20481;-81
2022/07/18 07:23:23;;;;;;;4.60;1.67;;;21.80;99.90;;;;;;5046068;28;20496;-80
2022/07/18 07:25:49;;;;;;;4.23;1.50;;;21.90;99.90;;;;;;5047792;28;20513;-81
2022/07/18 07:28:18;;;;;;;3.20;1.40;;;22.00;99.90;;;;;;5032313;28;21070;-79
2022/07/18 07:30:52;;;;;;;6.33;1.20;;;22.10;99.90;;;;;;5030305;28;20461;-79
2022/07/18 07:33:19;;;;;;;5.00;1.57;;;22.30;99.90;;;;;;5042602;28;20448;-78
2022/07/18 07:35:49;;;;;;;3.50;1.43;;;22.50;99.90;;;;;;5040190;28;20456;-78
2022/07/18 07:38:18;;;;;;;2.77;1.17;;;22.60;99.90;;;;;;5038501;28;20475;-83
2022/07/18 07:40:48;;;;;;;3.10;1.20;;;22.80;99.90;;;;;;5044962;28;20445;-80
2022/07/18 07:43:16;;;;;;;3.20;1.30;;;22.90;99.90;;;;;;5041359;28;20484;-81
2022/07/18 07:45:48;;;;;;;5.00;1.53;;;23.10;99.90;;;;;;5042017;28;20473;-79
2022/07/18 07:48:15;;;;;;;3.17;1.30;;;23.30;99.90;;;;;;5046200;28;21019;-80
2022/07/18 07:50:43;;;;;;;3.13;1.10;;;23.40;99.90;;;;;;5040129;28;20467;-81
2022/07/18 07:53:10;;;;;;;3.00;1.40;;;23.60;99.90;;;;;;5048462;28;20480;-79
2022/07/18 07:55:37;;;;;;;4.83;1.53;;;23.70;99.90;;;;;;5047733;28;20449;-81
2022/07/18 07:58:06;;;;;;;5.03;1.27;;;23.80;99.90;;;;;;5045877;28;20469;-80
2022/07/18 08:00:33;;;;;;;6.07;1.23;;;23.90;99.90;;;;;;5049256;28;20476;-81
2022/07/18 08:03:02;;;;;;;4.93;1.30;;;24.00;99.90;;;;;;5044955;28;20551;-79
2022/07/18 08:05:30;;;;;;;3.27;1.57;;;24.20;99.90;;;;;;5047419;28;20487;-81
2022/07/18 08:07:57;;;;;;;5.60;1.93;;;24.30;99.90;;;;;;5047539;28;20464;-81
2022/07/18 08:10:25;;;;;;;6.63;1.47;;;24.40;99.90;;;;;;5042826;28;20452;-80
2022/07/18 08:12:52;;;;;;;2.03;0.93;;;24.60;99.90;;;;;;5049642;28;20480;-81
2022/07/18 08:15:20;;;;;;;3.23;1.27;;;24.70;99.90;;;;;;5044792;28;20484;-81
2022/07/18 08:17:47;;;;;;;3.60;1.70;;;24.90;99.90;;;;;;5046587;28;20441;-80
2022/07/18 08:20:16;;;;;;;5.30;1.50;;;25.10;99.90;;;;;;5050131;28;20282;-80
2022/07/18 08:22:57;;;;;;;3.00;1.43;;;25.30;99.90;;;;;;5047412;28;21323;-81
2022/07/18 08:25:24;;;;;;;4.00;1.33;;;25.50;99.90;;;;;;5049356;28;20448;-79
2022/07/18 08:27:51;;;;;;;2.97;1.03;;;25.70;99.90;;;;;;5049382;28;20508;-82
2022/07/18 08:30:20;;;;;;;2.70;1.00;;;25.90;99.90;;;;;;5048686;28;20511;-80
2022/07/18 08:32:47;;;;;;;3.33;1.03;;;26.10;99.90;;;;;;5046465;28;20472;-78
2022/07/18 08:35:15;;;;;;;3.40;1.60;;;26.30;99.90;;;;;;5045874;28;20468;-80
2022/07/18 08:37:41;;;;;;;3.03;1.23;;;26.40;99.90;;;;;;5047264;28;20475;-79
2022/07/18 08:40:09;;;;;;;5.93;1.40;;;26.50;99.90;;;;;;5046772;28;20444;-80
2022/07/18 08:42:37;;;;;;;2.40;1.00;;;26.60;99.90;;;;;;5048415;28;20548;-80
2022/07/18 08:45:05;;;;;;;4.43;1.60;;;26.70;99.90;;;;;;5040724;28;20472;-80
2022/07/18 08:47:34;;;;;;;3.70;1.53;;;26.90;99.90;;;;;;5046032;28;20500;-81
2022/07/18 08:50:02;;;;;;;3.87;1.20;;;27.00;99.90;;;;;;5045800;28;20477;-81
2022/07/18 08:52:30;;;;;;;2.67;1.07;;;27.20;99.90;;;;;;5044194;28;20452;-79
2022/07/18 08:54:57;;;;;;;2.67;1.20;;;27.20;99.90;;;;;;5042950;28;20448;-80
2022/07/18 08:57:24;;;;;;;3.73;1.20;;;27.40;99.90;;;;;;5025129;28;20473;-80
2022/07/18 08:59:51;;;;;;;2.97;1.20;;;27.60;99.90;;;;;;5042616;28;20459;-79
2022/07/18 09:02:18;;;;;;;3.23;1.10;;;28.00;99.90;;;;;;5042165;28;20491;-79
2022/07/18 09:04:57;;;;;;;3.50;1.67;;;28.30;99.90;;;;;;5040913;28;20919;-79
2022/07/18 09:07:26;;;;;;;3.10;1.30;;;28.50;99.90;;;;;;5037081;28;20527;-79
2022/07/18 09:09:56;;;;;;;4.07;1.10;;;28.70;99.90;;;;;;5044871;28;20484;-80
2022/07/18 09:12:23;;;;;;;3.60;1.30;;;28.90;99.50;;;;;;5039486;28;20563;-79
2022/07/18 09:14:55;;;;;;;3.80;1.00;;;28.90;99.90;;;;;;5037058;28;20456;-79
2022/07/18 09:17:24;;;;;;;2.83;1.00;;;29.00;98.00;;;;;;5047060;28;20487;-81
2022/07/18 09:20:01;;;;;;;3.63;1.63;;;29.10;99.90;;;;;;5047500;28;20467;-80
2022/07/18 09:22:31;;;;;;;2.77;1.17;;;29.20;96.10;;;;;;5043048;28;20449;-79
2022/07/18 09:25:01;;;;;;;4.10;1.73;;;29.40;96.40;;;;;;5038356;28;20511;-79
2022/07/18 09:27:32;;;;;;;3.50;1.47;;;29.60;93.40;;;;;;5040504;28;20527;-79
2022/07/18 09:30:24;;;;;;;4.37;1.37;;;29.70;97.20;;;;;;5033275;28;20528;-79
2022/07/18 09:32:54;;;;;;;3.90;1.43;;;30.10;99.90;;;;;;5032828;28;20448;-79
2022/07/18 09:35:26;;;;;;;3.20;1.30;;;30.30;95.50;;;;;;5036987;28;21001;-79
2022/07/18 09:38:01;;;;;;;3.90;1.50;;;30.50;95.60;;;;;;5031278;28;20469;-79
2022/07/18 09:40:31;;;;;;;2.87;1.43;;;30.70;91.10;;;;;;5032656;28;20444;-78
2022/07/18 09:43:00;;;;;;;2.93;1.13;;;30.70;93.60;;;;;;5033054;28;20524;-79
2022/07/18 09:45:30;;;;;;;2.83;1.30;;;30.90;92.80;;;;;;5032332;28;20539;-79
2022/07/18 09:47:59;;;;;;;2.43;1.20;;;31.00;88.30;;;;;;5037700;28;21158;-80
2022/07/18 09:50:32;;;;;;;2.90;1.20;;;30.90;83.40;;;;;;5024770;28;21000;-78
2022/07/18 09:53:01;;;;;;;2.90;1.20;;;30.90;80.00;;;;;;5029620;28;20457;-79
2022/07/18 09:55:29;;;;;;;2.40;1.30;;;30.80;76.10;;;;;;5031661;28;20544;-78
2022/07/18 09:58:01;;;;;;;3.33;1.77;;;31.00;74.40;;;;;;5029882;28;20476;-79
2022/07/18 10:00:30;;;;;;;3.00;1.30;;;31.20;71.20;;;;;;5035982;28;20479;-80
2022/07/18 10:02:59;;;;;;;2.70;1.00;;;31.20;69.10;;;;;;5037345;28;20445;-80
2022/07/18 10:05:29;;;;;;;3.87;1.30;;;31.50;79.60;;;;;;5032020;28;20456;-83
2022/07/18 10:07:57;;;;;;;2.67;1.20;;;31.70;81.60;;;;;;5035821;28;20563;-80
2022/07/18 10:10:25;;;;;;;2.83;1.43;;;31.80;70.70;;;;;;5038473;28;20484;-79
2022/07/18 10:12:54;;;;;;;3.47;1.53;;;32.00;72.80;;;;;;5027012;28;20965;-80
2022/07/18 10:15:23;;;;;;;2.53;1.30;;;32.20;77.60;;;;;;5035050;28;20451;-79
2022/07/18 10:17:50;;;;;;;4.07;1.53;;;32.60;75.80;;;;;;5037408;28;20475;-80
2022/07/18 10:20:17;;;;;;;2.67;1.50;;;32.60;76.80;;;;;;5049830;28;20448;-80
2022/07/18 10:22:47;;;;;;;9.50;1.70;;;32.80;79.00;;;;;;5052733;28;20960;-78
2022/07/18 10:25:14;;;;;;;3.83;1.47;;;32.70;68.20;;;;;;5037741;28;20489;-79
2022/07/18 10:27:53;;;;;;;3.53;1.20;;;32.80;70.20;;;;;;5032578;28;20583;-78
2022/07/18 10:30:32;;;;;;;3.40;1.37;;;33.10;79.70;;;;;;5039627;28;20452;-78
2022/07/18 10:33:00;;;;;;;4.33;1.47;;;33.10;66.40;;;;;;5040259;28;20983;-78
2022/07/18 10:36:02;;;;;;;3.83;1.30;;;33.30;71.60;;;;;;5033125;28;20544;-78
2022/07/18 10:38:30;;;;;;;2.90;1.30;;;33.40;72.70;;;;;;5037406;28;21013;-80
2022/07/18 10:41:09;;;;;;;3.07;1.40;;;33.60;69.40;;;;;;5038894;28;20448;-80
2022/07/18 10:43:43;;;;;;;3.37;1.67;;;33.90;73.10;;;;;;5032958;28;20535;-79
2022/07/18 10:46:11;;;;;;;5.97;1.80;;;33.80;65.10;;;;;;5038147;28;20480;-78
2022/07/18 10:48:57;;;;;;;6.60;1.57;;;33.80;66.30;;;;;;5040452;28;20460;-79
2022/07/18 10:51:35;;;;;;;2.60;1.20;;;34.00;66.60;;;;;;5054543;28;20990;-80
2022/07/18 10:54:21;;;;;;;3.53;1.43;;;34.20;69.70;;;;;;5023185;28;20499;-80
2022/07/18 10:57:08;;;;;;;2.43;1.10;;;34.60;60.50;;;;;;5037633;28;20490;-79
2022/07/18 10:59:38;;;;;;;4.70;1.83;;;34.50;58.60;;;;;;5033286;28;20453;-79
2022/07/18 11:02:08;;;;;;;2.67;1.43;;;34.60;61.40;;;;;;5038582;28;20453;-81
2022/07/18 11:04:40;;;;;;;3.07;1.47;;;34.70;62.90;;;;;;5040208;28;20481;-79
2022/07/18 11:07:13;;;;;;;2.73;1.47;;;34.90;58.10;;;;;;5038321;28;20481;-81
2022/07/18 11:09:44;;;;;;;4.20;2.00;;;35.00;54.70;;;;;;5040580;28;20472;-78
2022/07/18 11:12:28;;;;;;;2.70;1.30;;;35.30;65.90;;;;;;5039355;28;21108;-80
2022/07/18 11:15:07;;;;;;;2.77;1.33;;;35.50;63.60;;;;;;5036758;28;20482;-81
2022/07/18 11:17:58;;;;;;;2.37;1.20;;;35.70;64.20;;;;;;5043372;28;20503;-81
2022/07/18 11:20:30;;;;;;;3.33;1.73;;;36.00;57.70;;;;;;5045463;28;20472;-82
2022/07/18 11:22:57;;;;;;;3.60;1.43;;;35.90;58.80;;;;;;5051978;28;20468;-78
2022/07/18 11:25:29;;;;;;;6.73;1.40;;;36.10;58.80;;;;;;5050978;28;20492;-80
2022/07/18 11:27:57;;;;;;;3.60;1.30;;;36.40;61.00;;;;;;5052242;28;20510;-81
2022/07/18 11:30:25;;;;;;;5.23;1.50;;;36.30;60.50;;;;;;5051254;28;20525;-79
2022/07/18 11:32:53;;;;;;;2.43;1.33;;;36.60;56.70;;;;;;5047099;28;20448;-80
2022/07/18 11:35:25;;;;;;;2.50;1.53;;;36.80;59.70;;;;;;5048954;28;20941;-79
2022/07/18 11:37:53;;;;;;;4.00;1.53;;;36.90;58.70;;;;;;5045187;28;20483;-82
2022/07/18 11:40:20;;;;;;;3.90;1.77;;;36.50;53.10;;;;;;5049255;28;20477;-81
2022/07/18 11:42:49;;;;;;;3.60;1.33;;;36.50;55.30;;;;;;5047124;28;20475;-80
2022/07/18 11:45:17;;;;;;;3.83;1.53;;;36.60;55.80;;;;;;5046139;28;20519;-79
2022/07/18 11:47:49;;;;;;;2.90;1.50;;;36.90;53.50;;;;;;5048042;28;20463;-80
2022/07/18 11:50:17;;;;;;;6.60;1.60;;;37.10;56.20;;;;;;5048875;28;20466;-80
2022/07/18 11:52:45;;;;;;;3.17;1.50;;;37.10;57.70;;;;;;5050937;28;20441;-82
2022/07/18 11:55:14;;;;;;;4.07;1.93;;;37.30;56.80;;;;;;5057375;28;20449;-81
2022/07/18 11:57:41;;;;;;;4.70;1.87;;;37.50;63.50;;;;;;5046362;28;20504;-77
2022/07/18 12:00:20;;;;;;;3.53;1.60;;;37.60;52.50;;;;;;5045888;28;20453;-83
2022/07/18 12:03:10;;;;;;;5.23;2.10;;;37.70;51.30;;;;;;5041031;28;20521;-79
2022/07/18 12:05:39;;;;;;;3.97;1.53;;;37.80;50.30;;;;;;5042327;28;20499;-82
2022/07/18 12:08:25;;;;;;;3.57;1.50;;;37.90;51.80;;;;;;5044584;28;20560;-78
2022/07/18 12:11:08;;;;;;;3.57;1.70;;;38.00;51.40;;;;;;5039434;28;20484;-80
2022/07/18 12:13:50;;;;;;;4.10;1.90;;;37.90;47.90;;;;;;5046619;28;20457;-83
2022/07/18 12:16:30;;;;;;;4.00;1.73;;;37.70;47.90;;;;;;5046994;28;20555;-81
2022/07/18 12:19:01;;;;;;;3.30;1.90;;;38.10;48.00;;;;;;5051081;28;20796;-79
2022/07/18 12:21:40;;;;;;;3.73;1.53;;;38.20;51.40;;;;;;5054469;28;20466;-79
2022/07/18 12:24:29;;;;;;;3.10;1.80;;;38.40;50.40;;;;;;5043261;28;20490;-79
2022/07/18 12:27:24;;;;;;;5.47;1.50;;;38.30;47.80;;;;;;5042423;28;20520;-80
2022/07/18 12:30:19;;;;;;;5.53;1.70;;;38.70;48.90;;;;;;5010298;28;20825;-78
2022/07/18 12:32:50;;;;;;;4.00;1.63;;;38.80;47.00;;;;;;5029039;28;20456;-79
2022/07/18 12:35:20;;;;;;;2.27;1.10;;;39.00;48.00;;;;;;5052656;28;20447;-81
2022/07/18 12:37:58;;;;;;;3.13;1.93;;;39.40;51.20;;;;;;5044757;28;20528;-80
2022/07/18 12:40:26;;;;;;;3.30;1.90;;;39.50;52.00;;;;;;5054978;28;20440;-80
2022/07/18 12:43:05;;;;;;;3.57;1.67;;;39.80;46.20;;;;;;5055164;28;20500;-78
2022/07/18 12:45:33;;;;;;;3.53;1.50;;;39.60;47.60;;;;;;5042372;28;20504;-80
2022/07/18 12:48:01;;;;;;;3.80;1.40;;;39.60;49.70;;;;;;5040621;28;20476;-79
2022/07/18 12:50:28;;;;;;;4.80;1.40;;;39.60;45.70;;;;;;5045552;28;20491;-80
2022/07/18 12:52:55;;;;;;;3.77;1.30;;;39.90;46.40;;;;;;5043688;28;20547;-80
2022/07/18 12:55:22;;;;;;;4.10;1.70;;;39.90;53.10;;;;;;5045764;28;20460;-81
2022/07/18 12:57:49;;;;;;;4.40;2.10;;;40.00;45.20;;;;;;5056722;28;20456;-79